createdAt,value
2022-08-22T00:01:46.956Z,3.60
2022-08-22T00:02:52.898Z,4.53
2022-08-22T00:03:00.779Z,3.67
2022-08-22T00:03:15.495Z,4.47
2022-08-22T00:04:25.417Z,4.10
2022-08-22T00:07:02.338Z,4.00
2022-08-22T00:09:36.257Z,4.07
2022-08-22T00:12:14.208Z,3.63
2022-08-22T00:14:47.437Z,4.07
2022-08-22T00:17:35.186Z,3.40
2022-08-22T00:20:13.129Z,4.00
2022-08-22T00:22:49.797Z,3.80
2022-08-22T00:25:35.007Z,3.70
2022-08-22T00:28:08.164Z,4.07
2022-08-22T00:30:45.489Z,3.33
2022-08-22T00:33:22.906Z,3.60
2022-08-22T00:36:08.444Z,3.70
2022-08-22T00:38:42.164Z,3.77
2022-08-22T00:41:24.425Z,3.93
2022-08-22T00:44:23.929Z,4.47
2022-08-22T00:47:17.106Z,3.40
2022-08-22T00:50:03.814Z,3.87
2022-08-22T00:52:49.534Z,3.77
2022-08-22T00:55:34.826Z,3.50
2022-08-22T00:58:25.669Z,3.97
2022-08-22T01:00:59.238Z,3.43
2022-08-22T01:04:06.977Z,3.90
2022-08-22T01:06:48.861Z,3.60
2022-08-22T01:09:31.683Z,3.93
2022-08-22T01:12:15.391Z,3.67
2022-08-22T01:14:48.326Z,4.10
2022-08-22T01:17:40.114Z,3.60
2022-08-22T01:20:37.050Z,4.30
2022-08-22T01:23:42.707Z,4.17
2022-08-22T01:27:10.651Z,4.00
2022-08-22T01:30:33.449Z,4.03
2022-08-22T01:33:45.470Z,4.47
2022-08-22T01:36:32.524Z,3.70
2022-08-22T01:39:17.181Z,3.97
2022-08-22T01:42:21.029Z,4.60
2022-08-22T01:45:36.959Z,3.90
2022-08-22T01:48:11.514Z,4.30
2022-08-22T01:50:44.875Z,4.03
2022-08-22T01:53:20.428Z,4.00
2022-08-22T01:55:57.941Z,4.70
2022-08-22T01:58:30.022Z,4.60
2022-08-22T02:01:21.803Z,4.40
2022-08-22T02:04:03.262Z,3.80
2022-08-22T02:06:43.729Z,3.87
2022-08-22T02:09:27.404Z,3.90
2022-08-22T02:12:00.208Z,4.40
2022-08-22T02:14:41.368Z,3.87
2022-08-22T02:17:20.054Z,3.70
2022-08-22T02:19:56.227Z,4.13
2022-08-22T02:22:33.923Z,4.40
2022-08-22T02:25:09.780Z,4.83
2022-08-22T02:27:50.120Z,4.10
2022-08-22T02:30:21.808Z,3.80
2022-08-22T02:33:05.496Z,3.50
2022-08-22T02:35:38.687Z,3.90
2022-08-22T02:38:24.084Z,4.07
2022-08-22T02:41:05.455Z,3.93
2022-08-22T02:43:40.896Z,3.53
2022-08-22T02:46:19.871Z,4.13
2022-08-22T02:48:58.277Z,4.33
2022-08-22T02:51:37.183Z,3.90
2022-08-22T02:54:14.154Z,3.83
2022-08-22T02:56:50.702Z,3.73
2022-08-22T02:59:31.938Z,3.77
2022-08-22T03:02:27.700Z,4.00
2022-08-22T03:04:58.077Z,3.87
2022-08-22T03:07:39.020Z,4.50
2022-08-22T03:10:16.557Z,3.83
2022-08-22T03:12:58.289Z,4.07
2022-08-22T03:15:34.081Z,4.60
2022-08-22T03:18:07.951Z,3.80
2022-08-22T03:20:46.723Z,4.90
2022-08-22T03:23:24.000Z,5.20
2022-08-22T03:25:59.924Z,4.53
2022-08-22T03:28:36.793Z,3.80
2022-08-22T03:31:13.681Z,4.70
2022-08-22T03:33:42.162Z,4.30
2022-08-22T03:36:25.762Z,3.70
2022-08-22T03:39:17.291Z,4.30
2022-08-22T03:42:03.387Z,4.47
2022-08-22T03:45:11.595Z,4.03
2022-08-22T03:48:08.629Z,3.97
2022-08-22T03:50:56.600Z,4.63
2022-08-22T03:53:58.250Z,4.67
2022-08-22T03:57:02.526Z,4.20
2022-08-22T04:00:07.854Z,4.70
2022-08-22T04:03:08.272Z,4.33
2022-08-22T04:06:11.526Z,4.70
2022-08-22T04:09:07.686Z,4.50
2022-08-22T04:12:13.571Z,5.27
2022-08-22T04:15:00.800Z,5.20
2022-08-22T04:18:17.635Z,4.40
2022-08-22T04:21:16.577Z,4.57
2022-08-22T04:24:08.899Z,4.00
2022-08-22T04:26:45.352Z,4.57
2022-08-22T04:29:20.591Z,4.70
2022-08-22T04:31:55.448Z,4.30
2022-08-22T04:34:29.588Z,5.27
2022-08-22T04:37:03.387Z,4.50
2022-08-22T04:39:36.748Z,5.27
2022-08-22T04:42:31.225Z,4.53
2022-08-22T04:45:06.846Z,5.30
2022-08-22T04:47:40.336Z,4.50
2022-08-22T04:50:16.735Z,5.13
2022-08-22T04:53:03.968Z,5.00
2022-08-22T04:55:37.442Z,4.37
2022-08-22T04:58:19.642Z,4.40
2022-08-22T05:01:04.595Z,4.60
2022-08-22T05:03:43.075Z,4.87
2022-08-22T05:06:15.659Z,4.37
2022-08-22T05:08:45.779Z,5.60
2022-08-22T05:11:19.843Z,5.07
2022-08-22T05:13:52.201Z,5.03
2022-08-22T05:16:24.395Z,5.57
2022-08-22T05:18:57.368Z,5.63
2022-08-22T05:21:33.512Z,5.33
2022-08-22T05:24:05.580Z,6.17
2022-08-22T05:26:39.520Z,5.60
2022-08-22T05:29:10.216Z,5.20
2022-08-22T05:31:42.703Z,5.83
2022-08-22T05:34:17.725Z,5.77
2022-08-22T05:36:49.691Z,5.37
2022-08-22T05:39:22.729Z,5.13
2022-08-22T05:41:55.875Z,5.80
2022-08-22T05:44:26.937Z,6.20
2022-08-22T05:47:01.890Z,5.57
2022-08-22T05:49:38.193Z,5.60
2022-08-22T05:52:16.394Z,4.73
2022-08-22T05:54:53.567Z,5.67
2022-08-22T05:57:28.894Z,5.60
2022-08-22T06:00:03.953Z,5.60
2022-08-22T06:02:52.092Z,5.07
2022-08-22T06:05:25.757Z,5.70
2022-08-22T06:08:00.824Z,5.33
2022-08-22T06:10:35.210Z,5.70
2022-08-22T06:13:06.719Z,4.93
2022-08-22T06:15:47.803Z,6.00
2022-08-22T06:18:22.000Z,5.63
2022-08-22T06:20:55.043Z,6.10
2022-08-22T06:23:27.452Z,5.90
2022-08-22T06:25:59.193Z,6.20
2022-08-22T06:28:32.820Z,5.87
2022-08-22T06:31:03.483Z,5.13
2022-08-22T06:33:39.047Z,5.63
2022-08-22T06:36:32.443Z,5.90
2022-08-22T06:39:23.382Z,5.33
2022-08-22T06:41:54.701Z,5.40
2022-08-22T06:44:25.959Z,5.67
2022-08-22T06:46:58.474Z,5.57
2022-08-22T06:49:29.026Z,6.13
2022-08-22T06:52:03.046Z,5.73
2022-08-22T06:54:36.278Z,4.90
2022-08-22T06:57:06.640Z,5.40
2022-08-22T06:59:38.767Z,5.60
2022-08-22T07:02:17.458Z,5.10
2022-08-22T07:04:49.907Z,5.53
2022-08-22T07:07:24.856Z,5.23
2022-08-22T07:09:55.550Z,5.10
2022-08-22T07:12:28.776Z,5.17
2022-08-22T07:15:01.184Z,4.83
2022-08-22T07:17:31.154Z,4.70
2022-08-22T07:20:05.305Z,4.33
2022-08-22T07:22:37.438Z,5.07
2022-08-22T07:25:11.299Z,4.20
2022-08-22T07:27:52.420Z,4.07
2022-08-22T07:30:26.597Z,4.10
2022-08-22T07:33:25.985Z,4.07
2022-08-22T07:35:55.749Z,3.83
2022-08-22T07:38:33.239Z,4.50
2022-08-22T07:41:10.696Z,4.17
2022-08-22T07:43:43.710Z,3.83
2022-08-22T07:46:22.846Z,2.97
2022-08-22T07:49:08.531Z,3.13
2022-08-22T07:51:42.693Z,3.50
2022-08-22T07:54:14.884Z,3.57
2022-08-22T07:56:50.320Z,3.63
2022-08-22T07:59:21.401Z,4.10
2022-08-22T08:01:54.037Z,3.67
2022-08-22T08:04:26.218Z,3.70
2022-08-22T08:06:57.619Z,3.97
2022-08-22T08:09:31.062Z,3.33
2022-08-22T08:12:00.786Z,3.47
2022-08-22T08:14:29.585Z,3.93
2022-08-22T08:17:03.298Z,4.03
2022-08-22T08:19:35.226Z,4.00
2022-08-22T08:22:04.778Z,3.80
2022-08-22T08:24:40.777Z,3.80
2022-08-22T08:27:33.639Z,4.03
2022-08-22T08:30:06.505Z,3.27
2022-08-22T08:32:38.373Z,3.97
2022-08-22T08:35:11.781Z,3.70
2022-08-22T08:37:45.334Z,4.13
2022-08-22T08:40:27.757Z,3.50
2022-08-22T08:43:29.893Z,4.03
2022-08-22T08:46:40.792Z,3.03
2022-08-22T08:49:29.926Z,4.03
2022-08-22T08:52:42.082Z,3.90
2022-08-22T08:55:29.553Z,3.83
2022-08-22T08:58:12.373Z,4.03
2022-08-22T09:00:52.270Z,3.83
2022-08-22T09:03:57.333Z,3.70
2022-08-22T09:06:56.823Z,4.40
2022-08-22T09:09:45.595Z,4.20
2022-08-22T09:12:54.368Z,4.20
2022-08-22T09:15:41.553Z,3.90
2022-08-22T09:18:49.585Z,4.00
2022-08-22T09:21:45.506Z,4.33
2022-08-22T09:24:53.361Z,3.80
2022-08-22T09:27:33.631Z,3.97
2022-08-22T09:30:08.673Z,4.20
2022-08-22T09:32:54.590Z,5.17
2022-08-22T09:35:32.127Z,4.00
2022-08-22T09:38:25.393Z,4.47
2022-08-22T09:41:01.087Z,3.67
2022-08-22T09:43:44.174Z,4.13
2022-08-22T09:46:21.317Z,4.10
2022-08-22T09:49:05.647Z,3.80
2022-08-22T09:51:44.549Z,3.77
2022-08-22T09:54:31.359Z,3.43
2022-08-22T09:57:17.429Z,4.23
2022-08-22T10:00:15.402Z,3.50
2022-08-22T10:02:52.232Z,4.40
2022-08-22T10:05:40.636Z,3.73
2022-08-22T10:08:40.634Z,3.73
2022-08-22T10:11:26.781Z,4.70
2022-08-22T10:14:02.279Z,3.50
2022-08-22T10:17:03.490Z,3.47
2022-08-22T10:19:38.110Z,3.27
2022-08-22T10:22:20.251Z,3.60
2022-08-22T10:24:59.885Z,3.47
2022-08-22T10:27:42.635Z,3.50
2022-08-22T10:30:16.350Z,3.93
2022-08-22T10:32:51.995Z,3.47
2022-08-22T10:35:25.736Z,3.67
2022-08-22T10:38:00.176Z,3.27
2022-08-22T10:40:36.043Z,3.40
2022-08-22T10:43:12.844Z,3.90
2022-08-22T10:45:45.182Z,3.53
2022-08-22T10:48:43.653Z,3.70
2022-08-22T10:51:24.884Z,3.80
2022-08-22T10:54:32.560Z,4.07
2022-08-22T10:57:15.204Z,3.20
2022-08-22T10:59:57.177Z,3.60
2022-08-22T11:02:55.166Z,3.37
2022-08-22T11:05:39.264Z,3.97
2022-08-22T11:08:31.487Z,3.33
2022-08-22T11:11:09.471Z,3.43
2022-08-22T11:13:44.169Z,3.63
2022-08-22T11:16:20.113Z,4.20
2022-08-22T11:19:15.253Z,3.10
2022-08-22T11:22:07.780Z,3.93
2022-08-22T11:25:14.049Z,3.87
2022-08-22T11:27:55.111Z,3.57
2022-08-22T11:30:36.268Z,3.60
2022-08-22T11:33:32.454Z,4.20
2022-08-22T11:36:26.308Z,4.40
2022-08-22T11:39:18.056Z,4.17
2022-08-22T11:41:56.100Z,3.80
2022-08-22T11:44:35.775Z,3.33
2022-08-22T11:47:28.856Z,3.50
2022-08-22T11:50:03.312Z,3.83
2022-08-22T11:53:04.507Z,3.40
2022-08-22T11:55:39.332Z,3.03
2022-08-22T11:58:22.944Z,2.90
2022-08-22T12:01:01.428Z,3.33
2022-08-22T12:03:55.672Z,3.00
2022-08-22T12:06:44.423Z,3.57
2022-08-22T12:09:36.346Z,3.77
2022-08-22T12:12:42.534Z,3.80
2022-08-22T12:15:17.456Z,3.80
2022-08-22T12:18:25.093Z,3.47
2022-08-22T12:21:15.816Z,3.83
2022-08-22T12:24:11.088Z,3.90
2022-08-22T12:26:59.315Z,3.60
2022-08-22T12:29:39.939Z,4.40
2022-08-22T12:32:43.894Z,4.57
2022-08-22T12:35:29.982Z,3.70
2022-08-22T12:38:26.722Z,4.43
2022-08-22T12:41:12.212Z,4.33
2022-08-22T12:43:53.188Z,3.77
2022-08-22T12:46:37.844Z,4.23
2022-08-22T12:49:49.804Z,3.90
2022-08-22T12:52:31.233Z,3.43
2022-08-22T12:55:24.858Z,3.77
2022-08-22T12:58:03.275Z,3.70
2022-08-22T13:00:35.031Z,3.80
2022-08-22T13:03:10.741Z,3.50
2022-08-22T13:05:44.783Z,3.70
2022-08-22T13:08:30.061Z,3.53
2022-08-22T13:11:02.253Z,3.80
2022-08-22T13:13:36.942Z,3.13
2022-08-22T13:16:08.241Z,3.10
2022-08-22T13:18:44.593Z,3.70
2022-08-22T13:21:16.510Z,4.30
2022-08-22T13:23:48.565Z,4.10
2022-08-22T13:26:33.700Z,3.67
2022-08-22T13:29:25.224Z,3.33
2022-08-22T13:32:01.998Z,3.57
2022-08-22T13:34:40.557Z,3.47
2022-08-22T13:37:16.652Z,3.70
2022-08-22T13:39:49.101Z,3.63
2022-08-22T13:42:28.960Z,3.37
2022-08-22T13:45:05.077Z,3.63
2022-08-22T13:47:39.231Z,3.13
2022-08-22T13:50:14.660Z,3.40
2022-08-22T13:52:52.303Z,3.13
2022-08-22T13:55:29.529Z,3.53
2022-08-22T13:58:06.821Z,3.53
2022-08-22T14:01:08.296Z,4.10
2022-08-22T14:03:42.986Z,3.73
2022-08-22T14:06:35.483Z,3.27
2022-08-22T14:09:31.786Z,2.77
2022-08-22T14:12:12.289Z,3.80
2022-08-22T14:14:45.818Z,3.37
2022-08-22T14:17:20.787Z,3.70
2022-08-22T14:19:59.702Z,3.60
2022-08-22T14:22:35.483Z,4.60
2022-08-22T14:25:08.593Z,3.27
2022-08-22T14:27:39.920Z,3.70
2022-08-22T14:30:15.997Z,3.30
2022-08-22T14:32:50.451Z,3.97
2022-08-22T14:35:34.592Z,3.70
2022-08-22T14:38:27.341Z,3.73
2022-08-22T14:41:03.251Z,3.93
2022-08-22T14:43:49.293Z,3.27
2022-08-22T14:46:26.684Z,4.03
2022-08-22T14:49:30.332Z,3.20
2022-08-22T14:52:07.373Z,3.90
2022-08-22T14:54:39.269Z,3.20
2022-08-22T14:57:20.515Z,3.80
2022-08-22T14:59:52.632Z,3.60
2022-08-22T15:02:26.798Z,3.30
2022-08-22T15:04:57.725Z,3.93
2022-08-22T15:07:28.446Z,3.40
2022-08-22T15:10:03.182Z,3.40
2022-08-22T15:12:34.576Z,3.33
2022-08-22T15:15:06.261Z,3.77
2022-08-22T15:17:44.060Z,3.10
2022-08-22T15:20:27.879Z,3.10
2022-08-22T15:23:01.426Z,2.80
2022-08-22T15:25:34.388Z,2.90
2022-08-22T15:28:06.738Z,3.30
2022-08-22T15:30:45.121Z,3.30
2022-08-22T15:33:24.354Z,3.80
2022-08-22T15:35:55.359Z,3.60
2022-08-22T15:38:32.425Z,3.33
2022-08-22T15:41:31.450Z,3.27
2022-08-22T15:44:09.287Z,3.50
2022-08-22T15:47:24.206Z,3.43
2022-08-22T15:49:59.311Z,3.60
2022-08-22T15:52:30.630Z,2.80
2022-08-22T15:55:21.636Z,3.30
2022-08-22T15:58:02.525Z,2.83
2022-08-22T16:00:43.756Z,3.20
2022-08-22T16:03:24.465Z,3.10
2022-08-22T16:05:56.033Z,3.10
2022-08-22T16:08:32.781Z,3.97
2022-08-22T16:11:29.676Z,3.20
2022-08-22T16:14:24.788Z,3.30
2022-08-22T16:17:01.632Z,3.77
2022-08-22T16:19:32.908Z,2.83
2022-08-22T16:22:18.992Z,3.73
2022-08-22T16:25:10.549Z,3.60
2022-08-22T16:27:52.897Z,4.30
2022-08-22T16:30:34.907Z,3.90
2022-08-22T16:33:04.494Z,3.63
2022-08-22T16:36:24.913Z,3.50
2022-08-22T16:38:57.099Z,3.00
2022-08-22T16:41:34.787Z,3.53
2022-08-22T16:44:31.357Z,3.67
2022-08-22T16:47:12.822Z,3.33
2022-08-22T16:49:57.045Z,4.03
2022-08-22T16:53:01.635Z,4.10
2022-08-22T16:55:56.316Z,5.00
2022-08-22T16:59:19.658Z,4.33
2022-08-22T17:02:09.703Z,4.60
2022-08-22T17:04:50.864Z,4.17
2022-08-22T17:07:30.988Z,3.33
2022-08-22T17:10:36.166Z,4.33
2022-08-22T17:13:22.841Z,4.40
2022-08-22T17:16:21.502Z,4.00
2022-08-22T17:19:09.190Z,4.30
2022-08-22T17:21:51.719Z,3.80
2022-08-22T17:24:34.014Z,3.50
2022-08-22T17:27:08.758Z,6.00
2022-08-22T17:29:53.761Z,4.80
2022-08-22T17:32:30.139Z,6.10
2022-08-22T17:35:07.597Z,5.00
2022-08-22T17:37:47.356Z,3.80
2022-08-22T17:40:28.684Z,3.40
2022-08-22T17:43:16.375Z,3.53
2022-08-22T17:46:00.409Z,4.23
2022-08-22T17:48:33.907Z,3.30
2022-08-22T17:51:11.764Z,3.60
2022-08-22T17:53:49.127Z,3.30
2022-08-22T17:56:23.659Z,3.77
2022-08-22T17:59:00.623Z,3.93
2022-08-22T18:01:45.250Z,3.50
2022-08-22T18:04:28.266Z,4.50
2022-08-22T18:07:05.244Z,4.93
2022-08-22T18:09:41.247Z,5.17
2022-08-22T18:12:17.434Z,5.47
2022-08-22T18:14:51.538Z,4.10
2022-08-22T18:17:26.202Z,3.27
2022-08-22T18:20:03.476Z,4.13
2022-08-22T18:22:37.440Z,6.20
2022-08-22T18:25:15.151Z,4.20
2022-08-22T18:27:51.988Z,5.90
2022-08-22T18:30:22.683Z,4.40
2022-08-22T18:32:57.625Z,4.37
2022-08-22T18:35:34.637Z,5.30
2022-08-22T18:38:19.135Z,4.50
2022-08-22T18:40:55.119Z,5.00
2022-08-22T18:43:36.022Z,4.73
2022-08-22T18:46:28.646Z,4.33
2022-08-22T18:49:15.227Z,4.63
2022-08-22T18:51:44.497Z,5.30
2022-08-22T18:54:37.073Z,4.30
2022-08-22T18:57:30.753Z,4.83
2022-08-22T19:00:07.612Z,4.10
2022-08-22T19:02:55.991Z,4.97
2022-08-22T19:05:40.277Z,7.07
2022-08-22T19:08:33.394Z,6.00
2022-08-22T19:11:16.951Z,5.77
2022-08-22T19:14:03.680Z,5.00
2022-08-22T19:17:03.261Z,5.20
2022-08-22T19:20:03.110Z,5.40
2022-08-22T19:22:35.716Z,4.90
2022-08-22T19:25:16.898Z,5.27
2022-08-22T19:27:46.778Z,5.17
2022-08-22T19:30:39.427Z,4.83
2022-08-22T19:33:09.854Z,5.10
2022-08-22T19:35:47.278Z,4.93
2022-08-22T19:38:52.432Z,5.40
2022-08-22T19:41:40.217Z,4.07
2022-08-22T19:44:12.499Z,4.60
2022-08-22T19:46:43.084Z,4.07
2022-08-22T19:49:29.012Z,4.00
2022-08-22T19:52:14.590Z,4.33
2022-08-22T19:54:54.376Z,4.53
2022-08-22T19:57:30.297Z,3.90
2022-08-22T20:00:04.053Z,3.83
2022-08-22T20:02:40.201Z,3.80
2022-08-22T20:05:24.564Z,3.90
2022-08-22T20:08:14.588Z,4.13
2022-08-22T20:10:56.931Z,3.97
2022-08-22T20:13:27.915Z,3.37
2022-08-22T20:16:06.465Z,3.40
2022-08-22T20:19:13.832Z,3.60
2022-08-22T20:21:47.425Z,3.60
2022-08-22T20:24:31.347Z,4.10
2022-08-22T20:27:13.750Z,4.50
2022-08-22T20:29:49.283Z,4.10
2022-08-22T20:32:21.310Z,4.13
2022-08-22T20:34:55.479Z,3.40
2022-08-22T20:37:45.415Z,3.50
2022-08-22T20:40:53.272Z,4.00
2022-08-22T20:43:28.467Z,4.90
2022-08-22T20:46:08.020Z,4.10
2022-08-22T20:48:42.471Z,4.07
2022-08-22T20:51:16.059Z,3.60
2022-08-22T20:53:52.508Z,3.37
2022-08-22T20:56:36.875Z,3.57
2022-08-22T20:59:24.009Z,4.10
2022-08-22T21:01:57.991Z,4.47
2022-08-22T21:04:32.146Z,3.67
2022-08-22T21:07:03.164Z,3.47
2022-08-22T21:09:48.851Z,4.00
2022-08-22T21:12:16.856Z,3.70
2022-08-22T21:14:46.921Z,4.43
2022-08-22T21:17:20.150Z,3.80
2022-08-22T21:19:48.575Z,4.00
2022-08-22T21:22:20.721Z,3.90
2022-08-22T21:24:48.684Z,4.60
2022-08-22T21:27:24.454Z,4.27
2022-08-22T21:29:52.585Z,3.50
2022-08-22T21:32:28.750Z,3.70
2022-08-22T21:34:57.009Z,3.50
2022-08-22T21:37:34.365Z,3.80
2022-08-22T21:40:08.397Z,4.50
2022-08-22T21:42:45.778Z,3.60
2022-08-22T21:45:28.315Z,3.53
2022-08-22T21:47:56.539Z,3.87
2022-08-22T21:50:34.678Z,3.90
2022-08-22T21:53:10.143Z,4.23
2022-08-22T21:55:42.781Z,3.60
2022-08-22T21:58:36.870Z,3.83
2022-08-22T22:01:29.193Z,3.60
2022-08-22T22:03:58.336Z,3.27
2022-08-22T22:06:26.981Z,3.87
2022-08-22T22:08:56.762Z,3.17
2022-08-22T22:11:24.760Z,3.53
2022-08-22T22:13:52.981Z,3.73
2022-08-22T22:16:28.386Z,2.87
2022-08-22T22:18:57.084Z,3.57
2022-08-22T22:21:25.124Z,3.70
2022-08-22T22:23:53.656Z,3.80
2022-08-22T22:26:28.698Z,3.43
2022-08-22T22:28:58.656Z,3.47
2022-08-22T22:31:26.783Z,2.80
2022-08-22T22:33:54.884Z,2.73
2022-08-22T22:36:26.141Z,3.30
2022-08-22T22:38:55.098Z,2.90
2022-08-22T22:41:25.767Z,3.33
2022-08-22T22:43:56.347Z,3.40
2022-08-22T22:46:26.765Z,3.37
2022-08-22T22:48:54.923Z,3.37
2022-08-22T22:51:23.225Z,3.70
2022-08-22T22:53:51.787Z,3.63
2022-08-22T22:56:22.227Z,3.20
2022-08-22T22:58:59.095Z,3.50
2022-08-22T23:01:33.258Z,3.40
2022-08-22T23:04:05.509Z,3.23
2022-08-22T23:06:34.569Z,3.50
2022-08-22T23:09:02.684Z,3.37
2022-08-22T23:11:31.822Z,3.13
2022-08-22T23:13:59.797Z,3.00
2022-08-22T23:16:32.943Z,3.67
2022-08-22T23:19:10.228Z,3.83
2022-08-22T23:21:38.289Z,3.60
2022-08-22T23:24:06.949Z,2.87
2022-08-22T23:26:36.049Z,3.40
2022-08-22T23:29:05.408Z,3.50
2022-08-22T23:31:35.303Z,3.17
2022-08-22T23:34:05.861Z,3.43
2022-08-22T23:36:35.711Z,2.83
2022-08-22T23:39:04.634Z,3.53
2022-08-22T23:41:32.835Z,3.57
2022-08-22T23:44:00.786Z,3.17
2022-08-22T23:46:29.014Z,3.10
2022-08-22T23:48:59.300Z,2.80
2022-08-22T23:51:28.333Z,3.10
2022-08-22T23:53:59.238Z,3.17
2022-08-22T23:56:29.406Z,3.90
2022-08-22T23:58:58.426Z,3.23
